Terminal Aerodrome Forecast
Issued by NWS

Home | Current Version | Previous Version | Text Only | Print | Product List | Glossary On
Versions: 1 2 3 4 5 6 7 8 9 10 11 12 13 14
000
FTUS44 KLZK 251120
TAFHOT
TAF
KHOT 251120Z 2512/2612 14004KT 6SM BR VCSH SCT030 BKN100
      TEMPO 2512/2515 3SM -TSRA BR BKN015CB OVC025
     FM251800 19008KT P6SM SCT025 BKN040
     FM260600 VRB05KT 5SM BR BKN010 OVC025
     FM261000 VRB06KT 5SM BR BKN005 OVC010=

USA.gov is the U.S. government's official web portal to all federal, state and local government web resources and services.